Rowhedge, United Kingdom
Current Conditions -  °F | °C
As of 1:50 AM on Tuesday 25 Nov 2014 (Local Time) from EGUW Reporting Station
Moderate Fog Moderate Fog  
Wind Chill: 31°   Ceiling: Unl
Heat Index: 36°   Visibility: 0.12mi
Dew Point: 36°   Wind: 6mph
Humidity: 100%   Direction: 20°NNE
Pressure: 30.3"   Gusts: NA
Location:  51.86°N, 0.95°E
Report Text: EGUW 250150Z AUTO 02005KT 0200 FG FEW001/// SCT190/// 02/02 Q1026
Loading
Personal Weather Stations






























Interactive Weather Map New forecast layout! Learn more

10-Day Weather Forecast

Advertisements
Track Severe Weather on mobile